sensor_id;sensor_type;location;lat;lon;timestamp;P1;durP1;ratioP1;P2;durP2;ratioP2
34832;SDS011;55941;50.800;4.342;2022-07-09T00:00:24;3.63;;;1.67;;
34832;SDS011;55941;50.800;4.342;2022-07-09T00:02:50;3.75;;;2.08;;
34832;SDS011;55941;50.800;4.342;2022-07-09T00:05:16;5.80;;;2.20;;
34832;SDS011;55941;50.800;4.342;2022-07-09T00:07:42;6.85;;;2.10;;
34832;SDS011;55941;50.800;4.342;2022-07-09T00:10:07;4.68;;;2.15;;
34832;SDS011;55941;50.800;4.342;2022-07-09T00:12:33;10.25;;;2.17;;
34832;SDS011;55941;50.800;4.342;2022-07-09T00:14:59;5.15;;;2.10;;
34832;SDS011;55941;50.800;4.342;2022-07-09T00:17:25;7.13;;;1.90;;
34832;SDS011;55941;50.800;4.342;2022-07-09T00:19:51;4.05;;;1.80;;
34832;SDS011;55941;50.800;4.342;2022-07-09T00:22:17;4.68;;;2.38;;
34832;SDS011;55941;50.800;4.342;2022-07-09T00:24:43;3.33;;;1.75;;
34832;SDS011;55941;50.800;4.342;2022-07-09T00:27:09;4.78;;;1.80;;
34832;SDS011;55941;50.800;4.342;2022-07-09T00:29:34;7.45;;;2.20;;
34832;SDS011;55941;50.800;4.342;2022-07-09T00:32:00;8.77;;;1.88;;
34832;SDS011;55941;50.800;4.342;2022-07-09T00:34:26;2.88;;;1.98;;
34832;SDS011;55941;50.800;4.342;2022-07-09T00:36:53;4.55;;;1.88;;
34832;SDS011;55941;50.800;4.342;2022-07-09T00:39:20;4.40;;;1.90;;
34832;SDS011;55941;50.800;4.342;2022-07-09T00:41:46;6.13;;;2.00;;
34832;SDS011;55941;50.800;4.342;2022-07-09T00:44:12;3.75;;;1.73;;
34832;SDS011;55941;50.800;4.342;2022-07-09T00:46:37;5.03;;;2.28;;
34832;SDS011;55941;50.800;4.342;2022-07-09T00:49:03;4.22;;;2.10;;
34832;SDS011;55941;50.800;4.342;2022-07-09T00:51:30;2.03;;;1.63;;
34832;SDS011;55941;50.800;4.342;2022-07-09T00:53:57;3.50;;;1.60;;
34832;SDS011;55941;50.800;4.342;2022-07-09T00:56:24;3.80;;;1.80;;
34832;SDS011;55941;50.800;4.342;2022-07-09T00:58:50;4.38;;;1.80;;
34832;SDS011;55941;50.800;4.342;2022-07-09T01:01:16;4.57;;;1.90;;
34832;SDS011;55941;50.800;4.342;2022-07-09T01:03:42;4.93;;;2.10;;
34832;SDS011;55941;50.800;4.342;2022-07-09T01:06:08;6.55;;;1.77;;
34832;SDS011;55941;50.800;4.342;2022-07-09T01:08:34;3.97;;;2.20;;
34832;SDS011;55941;50.800;4.342;2022-07-09T01:10:59;8.25;;;1.80;;
34832;SDS011;55941;50.800;4.342;2022-07-09T01:13:26;5.65;;;1.83;;
34832;SDS011;55941;50.800;4.342;2022-07-09T01:15:51;4.88;;;1.98;;
34832;SDS011;55941;50.800;4.342;2022-07-09T01:18:17;6.28;;;1.70;;
34832;SDS011;55941;50.800;4.342;2022-07-09T01:20:44;3.60;;;2.00;;
34832;SDS011;55941;50.800;4.342;2022-07-09T01:23:10;5.70;;;1.75;;
34832;SDS011;55941;50.800;4.342;2022-07-09T01:25:37;5.20;;;2.13;;
34832;SDS011;55941;50.800;4.342;2022-07-09T01:28:04;7.95;;;1.90;;
34832;SDS011;55941;50.800;4.342;2022-07-09T01:30:34;5.63;;;2.10;;
34832;SDS011;55941;50.800;4.342;2022-07-09T01:33:01;8.50;;;2.00;;
34832;SDS011;55941;50.800;4.342;2022-07-09T01:35:26;4.70;;;1.80;;
34832;SDS011;55941;50.800;4.342;2022-07-09T01:37:52;4.85;;;1.83;;
34832;SDS011;55941;50.800;4.342;2022-07-09T01:40:19;11.38;;;2.13;;
34832;SDS011;55941;50.800;4.342;2022-07-09T01:42:46;6.70;;;2.65;;
34832;SDS011;55941;50.800;4.342;2022-07-09T01:45:12;4.63;;;2.20;;
34832;SDS011;55941;50.800;4.342;2022-07-09T01:47:39;3.92;;;1.80;;
34832;SDS011;55941;50.800;4.342;2022-07-09T01:50:05;5.43;;;2.05;;
34832;SDS011;55941;50.800;4.342;2022-07-09T01:52:32;3.83;;;2.00;;
34832;SDS011;55941;50.800;4.342;2022-07-09T01:54:58;4.85;;;2.05;;
34832;SDS011;55941;50.800;4.342;2022-07-09T01:57:24;4.07;;;2.20;;
34832;SDS011;55941;50.800;4.342;2022-07-09T01:59:50;6.15;;;2.10;;
34832;SDS011;55941;50.800;4.342;2022-07-09T02:02:15;3.58;;;1.75;;
34832;SDS011;55941;50.800;4.342;2022-07-09T02:04:41;6.75;;;2.22;;
34832;SDS011;55941;50.800;4.342;2022-07-09T02:07:07;5.03;;;1.70;;
34832;SDS011;55941;50.800;4.342;2022-07-09T02:09:33;10.50;;;2.30;;
34832;SDS011;55941;50.800;4.342;2022-07-09T02:11:59;12.20;;;2.45;;
34832;SDS011;55941;50.800;4.342;2022-07-09T02:14:25;5.20;;;2.10;;
34832;SDS011;55941;50.800;4.342;2022-07-09T02:16:51;13.10;;;2.30;;
34832;SDS011;55941;50.800;4.342;2022-07-09T02:19:16;8.00;;;2.30;;
34832;SDS011;55941;50.800;4.342;2022-07-09T02:21:42;6.35;;;2.22;;
34832;SDS011;55941;50.800;4.342;2022-07-09T02:24:08;4.18;;;2.33;;
34832;SDS011;55941;50.800;4.342;2022-07-09T02:26:33;4.53;;;2.15;;
34832;SDS011;55941;50.800;4.342;2022-07-09T02:29:00;3.92;;;1.92;;
34832;SDS011;55941;50.800;4.342;2022-07-09T02:31:27;8.32;;;2.38;;
34832;SDS011;55941;50.800;4.342;2022-07-09T02:33:53;8.98;;;2.00;;
34832;SDS011;55941;50.800;4.342;2022-07-09T02:36:19;5.32;;;2.30;;
34832;SDS011;55941;50.800;4.342;2022-07-09T02:38:45;8.52;;;2.55;;
34832;SDS011;55941;50.800;4.342;2022-07-09T02:41:10;5.70;;;2.28;;
34832;SDS011;55941;50.800;4.342;2022-07-09T02:43:36;8.68;;;2.60;;
34832;SDS011;55941;50.800;4.342;2022-07-09T02:46:03;5.47;;;2.28;;
34832;SDS011;55941;50.800;4.342;2022-07-09T02:48:30;6.10;;;2.00;;
34832;SDS011;55941;50.800;4.342;2022-07-09T02:50:56;7.10;;;2.22;;
34832;SDS011;55941;50.800;4.342;2022-07-09T02:53:22;4.68;;;1.80;;
34832;SDS011;55941;50.800;4.342;2022-07-09T02:55:48;5.95;;;2.20;;
34832;SDS011;55941;50.800;4.342;2022-07-09T02:58:14;7.25;;;2.20;;
34832;SDS011;55941;50.800;4.342;2022-07-09T03:00:40;26.25;;;2.40;;
34832;SDS011;55941;50.800;4.342;2022-07-09T03:03:06;11.68;;;2.40;;
34832;SDS011;55941;50.800;4.342;2022-07-09T03:05:32;5.28;;;2.50;;
34832;SDS011;55941;50.800;4.342;2022-07-09T03:07:58;7.75;;;2.58;;
34832;SDS011;55941;50.800;4.342;2022-07-09T03:10:25;9.50;;;2.00;;
34832;SDS011;55941;50.800;4.342;2022-07-09T03:12:51;4.00;;;1.95;;
34832;SDS011;55941;50.800;4.342;2022-07-09T03:15:16;6.05;;;2.28;;
34832;SDS011;55941;50.800;4.342;2022-07-09T03:17:46;9.07;;;2.45;;
34832;SDS011;55941;50.800;4.342;2022-07-09T03:20:13;7.27;;;1.90;;
34832;SDS011;55941;50.800;4.342;2022-07-09T03:22:39;6.90;;;2.38;;
34832;SDS011;55941;50.800;4.342;2022-07-09T03:25:06;7.88;;;2.22;;
34832;SDS011;55941;50.800;4.342;2022-07-09T03:27:33;9.10;;;2.90;;
34832;SDS011;55941;50.800;4.342;2022-07-09T03:29:59;6.03;;;1.90;;
34832;SDS011;55941;50.800;4.342;2022-07-09T03:32:25;5.35;;;2.63;;
34832;SDS011;55941;50.800;4.342;2022-07-09T03:34:51;11.57;;;2.33;;
34832;SDS011;55941;50.800;4.342;2022-07-09T03:37:18;10.77;;;2.67;;
34832;SDS011;55941;50.800;4.342;2022-07-09T03:39:45;5.43;;;2.28;;
34832;SDS011;55941;50.800;4.342;2022-07-09T03:42:11;5.47;;;2.40;;
34832;SDS011;55941;50.800;4.342;2022-07-09T03:44:37;7.65;;;2.53;;
34832;SDS011;55941;50.800;4.342;2022-07-09T03:47:04;7.28;;;2.60;;
34832;SDS011;55941;50.800;4.342;2022-07-09T03:49:30;8.38;;;2.45;;
34832;SDS011;55941;50.800;4.342;2022-07-09T03:51:56;4.40;;;2.13;;
34832;SDS011;55941;50.800;4.342;2022-07-09T03:54:21;5.40;;;2.58;;
34832;SDS011;55941;50.800;4.342;2022-07-09T03:56:47;6.70;;;2.40;;
34832;SDS011;55941;50.800;4.342;2022-07-09T03:59:13;8.38;;;2.47;;
34832;SDS011;55941;50.800;4.342;2022-07-09T04:01:39;4.30;;;2.08;;
34832;SDS011;55941;50.800;4.342;2022-07-09T04:04:05;9.35;;;2.50;;
34832;SDS011;55941;50.800;4.342;2022-07-09T04:06:31;11.63;;;2.60;;
34832;SDS011;55941;50.800;4.342;2022-07-09T04:08:56;6.32;;;2.42;;
34832;SDS011;55941;50.800;4.342;2022-07-09T04:11:22;8.15;;;2.17;;
34832;SDS011;55941;50.800;4.342;2022-07-09T04:13:48;14.65;;;3.00;;
34832;SDS011;55941;50.800;4.342;2022-07-09T04:16:14;9.10;;;2.83;;
34832;SDS011;55941;50.800;4.342;2022-07-09T04:18:40;6.28;;;3.05;;
34832;SDS011;55941;50.800;4.342;2022-07-09T04:21:09;6.65;;;2.60;;
34832;SDS011;55941;50.800;4.342;2022-07-09T04:23:35;5.20;;;2.75;;
34832;SDS011;55941;50.800;4.342;2022-07-09T04:26:01;8.70;;;3.30;;
34832;SDS011;55941;50.800;4.342;2022-07-09T04:28:27;6.18;;;3.10;;
34832;SDS011;55941;50.800;4.342;2022-07-09T04:30:55;8.20;;;3.20;;
34832;SDS011;55941;50.800;4.342;2022-07-09T04:33:21;9.32;;;3.17;;
34832;SDS011;55941;50.800;4.342;2022-07-09T04:35:47;12.57;;;3.40;;
34832;SDS011;55941;50.800;4.342;2022-07-09T04:38:12;8.23;;;3.15;;
34832;SDS011;55941;50.800;4.342;2022-07-09T04:40:38;9.02;;;3.63;;
34832;SDS011;55941;50.800;4.342;2022-07-09T04:43:05;10.05;;;4.05;;
34832;SDS011;55941;50.800;4.342;2022-07-09T04:45:31;7.90;;;4.03;;
34832;SDS011;55941;50.800;4.342;2022-07-09T04:47:58;9.85;;;4.15;;
34832;SDS011;55941;50.800;4.342;2022-07-09T04:50:24;8.02;;;3.35;;
34832;SDS011;55941;50.800;4.342;2022-07-09T04:52:51;7.15;;;3.22;;
34832;SDS011;55941;50.800;4.342;2022-07-09T04:55:17;7.80;;;3.42;;
34832;SDS011;55941;50.800;4.342;2022-07-09T04:57:43;9.77;;;4.07;;
34832;SDS011;55941;50.800;4.342;2022-07-09T05:00:09;10.45;;;4.38;;
34832;SDS011;55941;50.800;4.342;2022-07-09T05:02:36;7.72;;;4.10;;
34832;SDS011;55941;50.800;4.342;2022-07-09T05:05:03;10.32;;;4.10;;
34832;SDS011;55941;50.800;4.342;2022-07-09T05:07:31;9.15;;;3.80;;
34832;SDS011;55941;50.800;4.342;2022-07-09T05:09:57;11.25;;;4.90;;
34832;SDS011;55941;50.800;4.342;2022-07-09T05:12:25;12.07;;;5.03;;
34832;SDS011;55941;50.800;4.342;2022-07-09T05:14:51;14.38;;;5.10;;
34832;SDS011;55941;50.800;4.342;2022-07-09T05:17:16;12.75;;;5.43;;
34832;SDS011;55941;50.800;4.342;2022-07-09T05:19:42;14.57;;;4.85;;
34832;SDS011;55941;50.800;4.342;2022-07-09T05:22:08;14.82;;;4.82;;
34832;SDS011;55941;50.800;4.342;2022-07-09T05:24:33;7.90;;;4.32;;
34832;SDS011;55941;50.800;4.342;2022-07-09T05:26:59;10.82;;;4.75;;
34832;SDS011;55941;50.800;4.342;2022-07-09T05:29:25;13.80;;;4.82;;
34832;SDS011;55941;50.800;4.342;2022-07-09T05:31:51;14.23;;;4.65;;
34832;SDS011;55941;50.800;4.342;2022-07-09T05:34:17;9.43;;;4.97;;
34832;SDS011;55941;50.800;4.342;2022-07-09T05:36:43;10.98;;;4.82;;
34832;SDS011;55941;50.800;4.342;2022-07-09T05:39:09;15.10;;;5.32;;
34832;SDS011;55941;50.800;4.342;2022-07-09T05:41:35;9.02;;;5.97;;
34832;SDS011;55941;50.800;4.342;2022-07-09T05:44:00;12.70;;;6.95;;
34832;SDS011;55941;50.800;4.342;2022-07-09T05:46:28;17.45;;;6.68;;
34832;SDS011;55941;50.800;4.342;2022-07-09T05:48:55;9.98;;;6.18;;
34832;SDS011;55941;50.800;4.342;2022-07-09T05:51:21;14.52;;;6.25;;
34832;SDS011;55941;50.800;4.342;2022-07-09T05:53:47;15.38;;;6.07;;
34832;SDS011;55941;50.800;4.342;2022-07-09T05:56:13;17.35;;;6.07;;
34832;SDS011;55941;50.800;4.342;2022-07-09T05:58:39;14.27;;;5.28;;
34832;SDS011;55941;50.800;4.342;2022-07-09T06:01:05;10.50;;;5.07;;
34832;SDS011;55941;50.800;4.342;2022-07-09T06:03:31;10.73;;;5.53;;
34832;SDS011;55941;50.800;4.342;2022-07-09T06:05:57;15.75;;;5.20;;
34832;SDS011;55941;50.800;4.342;2022-07-09T06:08:23;9.10;;;5.13;;
34832;SDS011;55941;50.800;4.342;2022-07-09T06:10:49;12.00;;;5.55;;
34832;SDS011;55941;50.800;4.342;2022-07-09T06:13:15;10.05;;;4.68;;
34832;SDS011;55941;50.800;4.342;2022-07-09T06:15:41;12.55;;;4.75;;
34832;SDS011;55941;50.800;4.342;2022-07-09T06:18:07;13.68;;;4.93;;
34832;SDS011;55941;50.800;4.342;2022-07-09T06:20:33;12.00;;;5.18;;
34832;SDS011;55941;50.800;4.342;2022-07-09T06:22:58;15.07;;;5.03;;
34832;SDS011;55941;50.800;4.342;2022-07-09T06:25:24;15.40;;;5.35;;
34832;SDS011;55941;50.800;4.342;2022-07-09T06:27:50;17.58;;;5.32;;
34832;SDS011;55941;50.800;4.342;2022-07-09T06:30:17;14.55;;;5.03;;
34832;SDS011;55941;50.800;4.342;2022-07-09T06:32:43;10.45;;;5.13;;
34832;SDS011;55941;50.800;4.342;2022-07-09T06:35:09;9.73;;;4.57;;
34832;SDS011;55941;50.800;4.342;2022-07-09T06:37:36;12.80;;;4.97;;
34832;SDS011;55941;50.800;4.342;2022-07-09T06:40:02;11.23;;;4.53;;
34832;SDS011;55941;50.800;4.342;2022-07-09T06:42:30;12.80;;;4.38;;
34832;SDS011;55941;50.800;4.342;2022-07-09T06:44:55;15.50;;;4.65;;
34832;SDS011;55941;50.800;4.342;2022-07-09T06:47:21;11.57;;;4.50;;
34832;SDS011;55941;50.800;4.342;2022-07-09T06:49:47;13.50;;;4.70;;
34832;SDS011;55941;50.800;4.342;2022-07-09T06:52:12;17.20;;;4.53;;
34832;SDS011;55941;50.800;4.342;2022-07-09T06:54:39;9.15;;;4.35;;
34832;SDS011;55941;50.800;4.342;2022-07-09T06:57:05;9.25;;;4.43;;
34832;SDS011;55941;50.800;4.342;2022-07-09T06:59:32;13.15;;;4.45;;
34832;SDS011;55941;50.800;4.342;2022-07-09T07:01:57;13.60;;;3.75;;
34832;SDS011;55941;50.800;4.342;2022-07-09T07:04:23;14.45;;;3.97;;
34832;SDS011;55941;50.800;4.342;2022-07-09T07:06:50;15.07;;;3.50;;
34832;SDS011;55941;50.800;4.342;2022-07-09T07:09:16;16.90;;;4.20;;
34832;SDS011;55941;50.800;4.342;2022-07-09T07:11:43;9.60;;;3.67;;
34832;SDS011;55941;50.800;4.342;2022-07-09T07:14:10;14.55;;;4.47;;
34832;SDS011;55941;50.800;4.342;2022-07-09T07:16:36;15.30;;;4.35;;
34832;SDS011;55941;50.800;4.342;2022-07-09T07:19:04;8.15;;;3.35;;
34832;SDS011;55941;50.800;4.342;2022-07-09T07:21:30;10.55;;;3.30;;
34832;SDS011;55941;50.800;4.342;2022-07-09T07:23:55;10.25;;;3.45;;
34832;SDS011;55941;50.800;4.342;2022-07-09T07:26:21;7.47;;;3.42;;
34832;SDS011;55941;50.800;4.342;2022-07-09T07:28:47;12.38;;;3.35;;
34832;SDS011;55941;50.800;4.342;2022-07-09T07:31:14;13.98;;;4.60;;
34832;SDS011;55941;50.800;4.342;2022-07-09T07:33:40;8.68;;;3.20;;
34832;SDS011;55941;50.800;4.342;2022-07-09T07:36:06;11.50;;;3.38;;
34832;SDS011;55941;50.800;4.342;2022-07-09T07:38:33;9.50;;;3.67;;
34832;SDS011;55941;50.800;4.342;2022-07-09T07:41:00;8.10;;;3.20;;
34832;SDS011;55941;50.800;4.342;2022-07-09T07:43:26;11.90;;;3.60;;
34832;SDS011;55941;50.800;4.342;2022-07-09T07:45:52;12.27;;;4.90;;
34832;SDS011;55941;50.800;4.342;2022-07-09T07:48:17;18.52;;;4.60;;
34832;SDS011;55941;50.800;4.342;2022-07-09T07:50:44;13.20;;;4.93;;
34832;SDS011;55941;50.800;4.342;2022-07-09T07:53:09;14.02;;;4.57;;
34832;SDS011;55941;50.800;4.342;2022-07-09T07:55:35;12.75;;;5.63;;
34832;SDS011;55941;50.800;4.342;2022-07-09T07:58:01;14.88;;;5.07;;
34832;SDS011;55941;50.800;4.342;2022-07-09T08:00:26;14.00;;;4.57;;
34832;SDS011;55941;50.800;4.342;2022-07-09T08:02:52;11.35;;;4.40;;
34832;SDS011;55941;50.800;4.342;2022-07-09T08:05:18;18.38;;;5.60;;
34832;SDS011;55941;50.800;4.342;2022-07-09T08:07:44;12.25;;;5.22;;
34832;SDS011;55941;50.800;4.342;2022-07-09T08:10:09;15.98;;;4.75;;
34832;SDS011;55941;50.800;4.342;2022-07-09T08:12:35;16.20;;;4.82;;
34832;SDS011;55941;50.800;4.342;2022-07-09T08:15:01;13.00;;;4.22;;
34832;SDS011;55941;50.800;4.342;2022-07-09T08:17:27;16.10;;;4.93;;
34832;SDS011;55941;50.800;4.342;2022-07-09T08:19:53;9.57;;;3.88;;
34832;SDS011;55941;50.800;4.342;2022-07-09T08:22:18;10.25;;;3.65;;
34832;SDS011;55941;50.800;4.342;2022-07-09T08:24:44;13.07;;;3.88;;
34832;SDS011;55941;50.800;4.342;2022-07-09T08:27:11;10.02;;;3.97;;
34832;SDS011;55941;50.800;4.342;2022-07-09T08:29:36;17.05;;;4.25;;
34832;SDS011;55941;50.800;4.342;2022-07-09T08:32:02;8.20;;;3.78;;
34832;SDS011;55941;50.800;4.342;2022-07-09T08:34:29;6.95;;;3.53;;
34832;SDS011;55941;50.800;4.342;2022-07-09T08:36:55;11.30;;;3.25;;
34832;SDS011;55941;50.800;4.342;2022-07-09T08:39:20;9.60;;;3.88;;
34832;SDS011;55941;50.800;4.342;2022-07-09T08:41:46;11.63;;;3.45;;
34832;SDS011;55941;50.800;4.342;2022-07-09T08:44:12;8.40;;;3.78;;
34832;SDS011;55941;50.800;4.342;2022-07-09T08:46:39;11.95;;;3.85;;
34832;SDS011;55941;50.800;4.342;2022-07-09T08:49:05;8.18;;;3.63;;
34832;SDS011;55941;50.800;4.342;2022-07-09T08:51:32;8.75;;;3.50;;
34832;SDS011;55941;50.800;4.342;2022-07-09T08:53:59;9.90;;;4.03;;
34832;SDS011;55941;50.800;4.342;2022-07-09T08:56:26;7.72;;;3.95;;
34832;SDS011;55941;50.800;4.342;2022-07-09T08:58:52;10.23;;;3.67;;
34832;SDS011;55941;50.800;4.342;2022-07-09T09:01:18;10.77;;;4.60;;
34832;SDS011;55941;50.800;4.342;2022-07-09T09:03:44;9.88;;;3.83;;
34832;SDS011;55941;50.800;4.342;2022-07-09T09:06:10;14.77;;;4.30;;
34832;SDS011;55941;50.800;4.342;2022-07-09T09:08:38;14.80;;;3.92;;
34832;SDS011;55941;50.800;4.342;2022-07-09T09:11:08;12.05;;;3.72;;
34832;SDS011;55941;50.800;4.342;2022-07-09T09:13:41;14.73;;;4.50;;
34832;SDS011;55941;50.800;4.342;2022-07-09T09:16:09;10.07;;;3.50;;
34832;SDS011;55941;50.800;4.342;2022-07-09T09:18:36;11.88;;;3.88;;
34832;SDS011;55941;50.800;4.342;2022-07-09T09:21:05;19.40;;;5.07;;
34832;SDS011;55941;50.800;4.342;2022-07-09T09:23:41;16.88;;;4.65;;
34832;SDS011;55941;50.800;4.342;2022-07-09T09:26:11;8.93;;;3.95;;
34832;SDS011;55941;50.800;4.342;2022-07-09T09:31:29;10.20;;;3.78;;
34832;SDS011;55941;50.800;4.342;2022-07-09T09:36:34;10.55;;;4.82;;
34832;SDS011;55941;50.800;4.342;2022-07-09T09:41:33;11.30;;;4.70;;
34832;SDS011;55941;50.800;4.342;2022-07-09T09:43:59;15.23;;;6.40;;
34832;SDS011;55941;50.800;4.342;2022-07-09T09:46:34;11.63;;;6.43;;
34832;SDS011;55941;50.800;4.342;2022-07-09T09:49:00;14.85;;;7.00;;
34832;SDS011;55941;50.800;4.342;2022-07-09T09:51:31;13.30;;;6.68;;
34832;SDS011;55941;50.800;4.342;2022-07-09T09:53:58;14.50;;;8.88;;
34832;SDS011;55941;50.800;4.342;2022-07-09T09:56:25;16.30;;;9.07;;
34832;SDS011;55941;50.800;4.342;2022-07-09T09:58:51;23.10;;;9.38;;
34832;SDS011;55941;50.800;4.342;2022-07-09T10:01:18;15.35;;;10.25;;
34832;SDS011;55941;50.800;4.342;2022-07-09T10:03:44;20.73;;;11.40;;
34832;SDS011;55941;50.800;4.342;2022-07-09T10:06:10;18.92;;;13.43;;
34832;SDS011;55941;50.800;4.342;2022-07-09T10:08:36;22.95;;;16.13;;
34832;SDS011;55941;50.800;4.342;2022-07-09T10:11:02;19.67;;;14.50;;
34832;SDS011;55941;50.800;4.342;2022-07-09T10:13:29;22.08;;;15.57;;
34832;SDS011;55941;50.800;4.342;2022-07-09T10:15:55;26.95;;;17.25;;
34832;SDS011;55941;50.800;4.342;2022-07-09T10:18:20;28.63;;;17.52;;
34832;SDS011;55941;50.800;4.342;2022-07-09T10:20:46;26.17;;;17.20;;
34832;SDS011;55941;50.800;4.342;2022-07-09T10:23:22;28.80;;;16.13;;
34832;SDS011;55941;50.800;4.342;2022-07-09T10:25:49;26.55;;;18.05;;
34832;SDS011;55941;50.800;4.342;2022-07-09T10:28:21;27.27;;;17.90;;
34832;SDS011;55941;50.800;4.342;2022-07-09T10:30:47;27.08;;;17.88;;
34832;SDS011;55941;50.800;4.342;2022-07-09T10:33:21;22.88;;;14.07;;
34832;SDS011;55941;50.800;4.342;2022-07-09T10:35:49;24.05;;;15.35;;
34832;SDS011;55941;50.800;4.342;2022-07-09T10:38:16;25.20;;;13.80;;
34832;SDS011;55941;50.800;4.342;2022-07-09T10:40:58;24.73;;;14.35;;
34832;SDS011;55941;50.800;4.342;2022-07-09T10:43:41;22.13;;;12.02;;
34832;SDS011;55941;50.800;4.342;2022-07-09T10:46:13;17.80;;;12.23;;
34832;SDS011;55941;50.800;4.342;2022-07-09T10:48:39;17.33;;;11.55;;
34832;SDS011;55941;50.800;4.342;2022-07-09T10:51:05;18.38;;;9.63;;
34832;SDS011;55941;50.800;4.342;2022-07-09T10:53:31;15.10;;;7.47;;
34832;SDS011;55941;50.800;4.342;2022-07-09T10:55:56;21.75;;;11.40;;
34832;SDS011;55941;50.800;4.342;2022-07-09T10:58:24;18.85;;;10.50;;
34832;SDS011;55941;50.800;4.342;2022-07-09T11:00:55;16.52;;;10.10;;
34832;SDS011;55941;50.800;4.342;2022-07-09T11:03:25;13.05;;;7.70;;
34832;SDS011;55941;50.800;4.342;2022-07-09T11:05:52;17.05;;;7.97;;
34832;SDS011;55941;50.800;4.342;2022-07-09T11:08:18;16.58;;;8.60;;
34832;SDS011;55941;50.800;4.342;2022-07-09T11:10:45;13.85;;;8.90;;
34832;SDS011;55941;50.800;4.342;2022-07-09T11:13:11;20.48;;;8.05;;
34832;SDS011;55941;50.800;4.342;2022-07-09T11:15:37;16.95;;;7.95;;
34832;SDS011;55941;50.800;4.342;2022-07-09T11:18:04;11.30;;;6.60;;
34832;SDS011;55941;50.800;4.342;2022-07-09T11:20:31;11.93;;;5.75;;
34832;SDS011;55941;50.800;4.342;2022-07-09T11:22:58;8.93;;;5.00;;
34832;SDS011;55941;50.800;4.342;2022-07-09T11:25:25;10.70;;;4.78;;
34832;SDS011;55941;50.800;4.342;2022-07-09T11:27:53;12.98;;;3.83;;
34832;SDS011;55941;50.800;4.342;2022-07-09T11:30:19;5.65;;;2.50;;
34832;SDS011;55941;50.800;4.342;2022-07-09T11:32:45;5.70;;;2.17;;
34832;SDS011;55941;50.800;4.342;2022-07-09T11:35:12;9.75;;;2.25;;
34832;SDS011;55941;50.800;4.342;2022-07-09T11:37:48;3.97;;;2.13;;
34832;SDS011;55941;50.800;4.342;2022-07-09T11:40:17;4.43;;;1.55;;
34832;SDS011;55941;50.800;4.342;2022-07-09T11:42:44;3.42;;;1.48;;
34832;SDS011;55941;50.800;4.342;2022-07-09T11:45:10;3.85;;;1.70;;
34832;SDS011;55941;50.800;4.342;2022-07-09T11:47:37;2.15;;;1.10;;
34832;SDS011;55941;50.800;4.342;2022-07-09T11:52:35;3.88;;;1.35;;
34832;SDS011;55941;50.800;4.342;2022-07-09T11:55:08;9.07;;;1.75;;
34832;SDS011;55941;50.800;4.342;2022-07-09T11:57:36;7.72;;;1.55;;
34832;SDS011;55941;50.800;4.342;2022-07-09T12:00:03;8.15;;;2.00;;
34832;SDS011;55941;50.800;4.342;2022-07-09T12:02:34;4.35;;;1.55;;
34832;SDS011;55941;50.800;4.342;2022-07-09T12:05:06;8.00;;;1.60;;
34832;SDS011;55941;50.800;4.342;2022-07-09T12:07:34;3.50;;;1.20;;
34832;SDS011;55941;50.800;4.342;2022-07-09T12:10:04;8.57;;;1.65;;
34832;SDS011;55941;50.800;4.342;2022-07-09T12:12:35;5.10;;;1.27;;
34832;SDS011;55941;50.800;4.342;2022-07-09T12:15:02;3.75;;;1.00;;
34832;SDS011;55941;50.800;4.342;2022-07-09T12:17:29;6.60;;;1.60;;
34832;SDS011;55941;50.800;4.342;2022-07-09T12:19:56;2.70;;;1.58;;
34832;SDS011;55941;50.800;4.342;2022-07-09T12:22:22;6.53;;;1.60;;
34832;SDS011;55941;50.800;4.342;2022-07-09T12:24:49;2.00;;;1.20;;
34832;SDS011;55941;50.800;4.342;2022-07-09T12:27:16;7.82;;;1.45;;
34832;SDS011;55941;50.800;4.342;2022-07-09T12:29:42;3.08;;;1.30;;
34832;SDS011;55941;50.800;4.342;2022-07-09T12:32:08;4.25;;;1.25;;
34832;SDS011;55941;50.800;4.342;2022-07-09T12:34:34;7.20;;;1.20;;
34832;SDS011;55941;50.800;4.342;2022-07-09T12:37:00;6.63;;;1.30;;
34832;SDS011;55941;50.800;4.342;2022-07-09T12:39:26;9.90;;;1.10;;
34832;SDS011;55941;50.800;4.342;2022-07-09T12:41:51;4.20;;;1.27;;
34832;SDS011;55941;50.800;4.342;2022-07-09T12:44:17;3.15;;;1.08;;
34832;SDS011;55941;50.800;4.342;2022-07-09T12:46:43;2.75;;;1.30;;
34832;SDS011;55941;50.800;4.342;2022-07-09T12:49:09;3.92;;;1.60;;
34832;SDS011;55941;50.800;4.342;2022-07-09T12:51:35;3.95;;;1.60;;
34832;SDS011;55941;50.800;4.342;2022-07-09T12:54:01;2.33;;;1.20;;
34832;SDS011;55941;50.800;4.342;2022-07-09T12:56:27;7.07;;;1.27;;
34832;SDS011;55941;50.800;4.342;2022-07-09T12:58:52;5.05;;;1.30;;
34832;SDS011;55941;50.800;4.342;2022-07-09T13:01:18;6.05;;;1.10;;
34832;SDS011;55941;50.800;4.342;2022-07-09T13:03:44;5.45;;;0.90;;
34832;SDS011;55941;50.800;4.342;2022-07-09T13:06:10;2.03;;;0.90;;
34832;SDS011;55941;50.800;4.342;2022-07-09T13:08:54;2.50;;;0.90;;
34832;SDS011;55941;50.800;4.342;2022-07-09T13:11:21;1.95;;;0.80;;
34832;SDS011;55941;50.800;4.342;2022-07-09T13:13:47;6.78;;;1.00;;
34832;SDS011;55941;50.800;4.342;2022-07-09T13:16:12;3.45;;;1.10;;
34832;SDS011;55941;50.800;4.342;2022-07-09T13:18:38;6.35;;;0.85;;
34832;SDS011;55941;50.800;4.342;2022-07-09T13:21:04;4.32;;;0.95;;
34832;SDS011;55941;50.800;4.342;2022-07-09T13:23:30;2.25;;;0.90;;
34832;SDS011;55941;50.800;4.342;2022-07-09T13:25:56;3.50;;;0.85;;
34832;SDS011;55941;50.800;4.342;2022-07-09T13:28:22;5.70;;;0.70;;
34832;SDS011;55941;50.800;4.342;2022-07-09T13:30:48;4.35;;;1.17;;
34832;SDS011;55941;50.800;4.342;2022-07-09T13:33:14;6.60;;;1.10;;
34832;SDS011;55941;50.800;4.342;2022-07-09T13:35:40;2.03;;;0.70;;
34832;SDS011;55941;50.800;4.342;2022-07-09T13:38:06;3.83;;;0.85;;
34832;SDS011;55941;50.800;4.342;2022-07-09T13:40:32;4.03;;;0.90;;
34832;SDS011;55941;50.800;4.342;2022-07-09T13:42:58;3.65;;;0.82;;
34832;SDS011;55941;50.800;4.342;2022-07-09T13:45:23;3.50;;;0.73;;
34832;SDS011;55941;50.800;4.342;2022-07-09T13:47:57;4.95;;;0.70;;
34832;SDS011;55941;50.800;4.342;2022-07-09T13:50:23;2.83;;;0.75;;
34832;SDS011;55941;50.800;4.342;2022-07-09T13:52:50;2.65;;;0.68;;
34832;SDS011;55941;50.800;4.342;2022-07-09T13:55:15;3.90;;;0.82;;
34832;SDS011;55941;50.800;4.342;2022-07-09T13:57:41;2.75;;;0.70;;
34832;SDS011;55941;50.800;4.342;2022-07-09T14:00:07;2.47;;;0.70;;
34832;SDS011;55941;50.800;4.342;2022-07-09T14:02:34;2.65;;;0.90;;
34832;SDS011;55941;50.800;4.342;2022-07-09T14:05:00;1.85;;;1.00;;
34832;SDS011;55941;50.800;4.342;2022-07-09T14:07:26;2.70;;;0.90;;
34832;SDS011;55941;50.800;4.342;2022-07-09T14:09:52;2.00;;;0.63;;
34832;SDS011;55941;50.800;4.342;2022-07-09T14:12:18;2.85;;;0.93;;
34832;SDS011;55941;50.800;4.342;2022-07-09T14:14:44;2.33;;;0.63;;
34832;SDS011;55941;50.800;4.342;2022-07-09T14:17:10;1.80;;;0.70;;
34832;SDS011;55941;50.800;4.342;2022-07-09T14:19:35;4.55;;;1.20;;
34832;SDS011;55941;50.800;4.342;2022-07-09T14:22:01;3.53;;;0.88;;
34832;SDS011;55941;50.800;4.342;2022-07-09T14:24:28;2.85;;;0.80;;
34832;SDS011;55941;50.800;4.342;2022-07-09T14:26:53;1.58;;;0.75;;
34832;SDS011;55941;50.800;4.342;2022-07-09T14:29:19;4.20;;;0.85;;
34832;SDS011;55941;50.800;4.342;2022-07-09T14:31:45;7.30;;;2.38;;
34832;SDS011;55941;50.800;4.342;2022-07-09T14:34:11;3.88;;;1.77;;
34832;SDS011;55941;50.800;4.342;2022-07-09T14:36:36;8.30;;;0.90;;
34832;SDS011;55941;50.800;4.342;2022-07-09T14:39:02;6.07;;;1.00;;
34832;SDS011;55941;50.800;4.342;2022-07-09T14:41:30;3.30;;;0.90;;
34832;SDS011;55941;50.800;4.342;2022-07-09T14:43:56;6.82;;;0.80;;
34832;SDS011;55941;50.800;4.342;2022-07-09T14:46:21;3.92;;;1.10;;